Time;durP1;ratioP1;P1;durP2;ratioP2;P2;SDS_P1;SDS_P2;PMS_P1;PMS_P2;Temp;Humidity;BMP_temperature;BMP_pressure;BME280_temperature;BME280_humidity;BME280_pressure;Samples;Min_cycle;Max_cycle;Signal;HPM_P1;HPM_P2
2022/06/19 00:00:05;;;;;;;;;;;27.60;68.50;27.50;99098.00;;;;342112;28;83446;-86
2022/06/19 00:00:17;;;;;;;;;;;27.60;68.70;27.50;99090.00;;;;342894;28;88861;-86
2022/06/19 00:00:29;;;;;;;;;;;27.70;68.70;27.60;99093.00;;;;340493;28;83385;-86
2022/06/19 00:00:42;;;;;;;;;;;27.70;68.70;27.50;99098.00;;;;339842;28;89104;-86
2022/06/19 00:00:54;;;;;;;;;;;27.60;68.60;27.50;99100.00;;;;340806;28;83455;-86
2022/06/19 00:01:06;;;;;;;;;;;27.60;68.60;27.60;99102.00;;;;341600;28;88738;-86
2022/06/19 00:01:17;;;;;;;;;;;27.60;68.60;27.60;99097.00;;;;340704;28;83372;-87
2022/06/19 00:01:29;;;;;;;;;;;27.60;68.60;27.60;99098.00;;;;340275;28;89071;-86
2022/06/19 00:01:41;;;;;;;;;;;27.60;68.60;27.60;99100.00;;;;341908;28;83337;-86
2022/06/19 00:01:52;;;;;;;;;;;27.60;68.60;27.60;99101.00;;;;341483;28;90309;-86
2022/06/19 00:02:04;;;;;;;;;;;27.60;68.60;27.60;99094.00;;;;342995;28;83963;-87
2022/06/19 00:02:18;;;;;;;;;;;27.70;68.70;27.50;99103.00;;;;342849;28;91706;-86
2022/06/19 00:02:29;;;;;;;;;;;27.70;68.80;27.50;99105.00;;;;340580;28;83283;-86
2022/06/19 00:02:42;;;;;;;;;;;27.60;68.70;27.50;99093.00;;;;340219;28;91453;-86
2022/06/19 00:02:54;;;;;;;;;;;27.60;68.70;27.50;99095.00;;;;340593;28;83399;-86
2022/06/19 00:03:09;;;;;;;;;;;27.60;68.80;27.50;99101.00;;;;340234;28;89238;-86
2022/06/19 00:03:26;;;;;;;;;;;27.60;68.70;27.50;99098.00;;;;340685;28;83347;-86
2022/06/19 00:03:44;;;;;;;;;;;27.60;68.60;27.50;99108.00;;;;339960;28;89376;-86
2022/06/19 00:03:56;;;;;;;;;;;27.60;68.70;27.50;99106.00;;;;343200;28;83590;-86
2022/06/19 00:04:09;;;;;;;;;;;27.60;68.80;27.50;99100.00;;;;342646;28;91694;-86
2022/06/19 00:04:20;;;;;;;;;;;27.60;68.80;27.50;99108.00;;;;338953;28;83517;-86
2022/06/19 00:04:32;;;;;;;;;;;27.60;68.80;27.50;99116.00;;;;342862;28;90311;-87
2022/06/19 00:04:44;;;;;;;;;;;27.60;68.80;27.50;99104.00;;;;341764;28;83765;-86
2022/06/19 00:04:56;;;;;;;;;;;27.60;68.90;27.50;99109.00;;;;341346;28;92326;-86
2022/06/19 00:05:08;;;;;;;;;;;27.60;68.90;27.50;99109.00;;;;341896;28;83481;-86
2022/06/19 00:05:20;;;;;;;;;;;27.60;69.00;27.40;99105.00;;;;341598;28;89150;-86
2022/06/19 00:05:32;;;;;;;;;;;27.60;68.90;27.50;99113.00;;;;341966;28;83350;-86
2022/06/19 00:05:43;;;;;;;;;;;27.60;68.90;27.40;99099.00;;;;341473;28;89167;-87
2022/06/19 00:05:55;;;;;;;;;;;27.60;69.10;27.40;99097.00;;;;341895;28;83334;-86
2022/06/19 00:06:07;;;;;;;;;;;27.60;69.10;27.40;99097.00;;;;340310;28;88422;-86
2022/06/19 00:06:19;;;;;;;;;;;27.60;69.00;27.50;99097.00;;;;341813;28;83304;-86
2022/06/19 00:06:30;;;;;;;;;;;27.60;68.90;27.40;99098.00;;;;341345;28;92047;-86
2022/06/19 00:06:42;;;;;;;;;;;27.60;68.90;27.50;99104.00;;;;342166;28;86266;-86
2022/06/19 00:06:56;;;;;;;;;;;27.60;69.10;27.40;99099.00;;;;342946;28;92596;-86
2022/06/19 00:07:09;;;;;;;;;;;27.60;69.10;27.40;99097.00;;;;340633;28;83353;-86
2022/06/19 00:07:20;;;;;;;;;;;27.50;69.00;27.40;99095.00;;;;342852;28;91089;-86
2022/06/19 00:07:33;;;;;;;;;;;27.50;69.00;27.40;99092.00;;;;343257;28;83372;-86
2022/06/19 00:07:45;;;;;;;;;;;27.50;68.90;27.50;99098.00;;;;340069;28;91301;-86
2022/06/19 00:07:57;;;;;;;;;;;27.50;68.90;27.40;99101.00;;;;342061;28;82287;-86
2022/06/19 00:08:08;;;;;;;;;;;27.50;68.90;27.40;99102.00;;;;342805;28;93286;-86
2022/06/19 00:08:20;;;;;;;;;;;27.50;68.90;27.50;99110.00;;;;343352;28;83363;-86
2022/06/19 00:08:32;;;;;;;;;;;27.50;68.90;27.40;99107.00;;;;342803;28;92127;-86
2022/06/19 00:08:45;;;;;;;;;;;27.50;69.10;27.40;99104.00;;;;341940;28;83318;-86
2022/06/19 00:08:57;;;;;;;;;;;27.50;69.00;27.40;99102.00;;;;341545;28;88832;-86
2022/06/19 00:09:09;;;;;;;;;;;27.50;69.10;27.40;99106.00;;;;343347;28;83274;-86
2022/06/19 00:09:21;;;;;;;;;;;27.50;69.10;27.40;99090.00;;;;341647;28;88721;-86
2022/06/19 00:09:32;;;;;;;;;;;27.50;69.10;27.40;99094.00;;;;341975;28;83244;-86
2022/06/19 00:09:44;;;;;;;;;;;27.50;69.10;27.40;99100.00;;;;342352;28;90543;-86
2022/06/19 00:09:56;;;;;;;;;;;27.50;69.10;27.30;99101.00;;;;340118;28;83403;-86
2022/06/19 00:10:08;;;;;;;;;;;27.50;69.20;27.30;99088.00;;;;340115;28;89773;-86
2022/06/19 00:10:20;;;;;;;;;;;27.50;69.20;27.40;99080.00;;;;341833;28;82464;-86
2022/06/19 00:10:31;;;;;;;;;;;27.40;69.10;27.40;99097.00;;;;341535;28;90324;-86
2022/06/19 00:10:43;;;;;;;;;;;27.50;69.10;27.40;99097.00;;;;340421;28;83505;-86
2022/06/19 00:10:55;;;;;;;;;;;27.50;69.10;27.40;99099.00;;;;342870;28;87657;-86
2022/06/19 00:11:07;;;;;;;;;;;27.50;69.10;27.30;99091.00;;;;344631;28;83238;-86
2022/06/19 00:11:20;;;;;;;;;;;27.50;69.40;27.40;99088.00;;;;340201;28;90683;-86
2022/06/19 00:11:33;;;;;;;;;;;27.50;69.20;27.30;99099.00;;;;341872;28;83276;-86
2022/06/19 00:11:45;;;;;;;;;;;27.50;69.20;27.30;99097.00;;;;340158;28;90534;-86
2022/06/19 00:11:57;;;;;;;;;;;27.50;69.20;27.40;99094.00;;;;341862;28;83442;-86
2022/06/19 00:12:09;;;;;;;;;;;27.50;69.70;27.30;99097.00;;;;340126;28;90211;-86
2022/06/19 00:12:21;;;;;;;;;;;27.50;69.30;27.30;99099.00;;;;338953;28;83987;-86
2022/06/19 00:12:33;;;;;;;;;;;27.50;69.40;27.40;99102.00;;;;341549;28;90656;-86
2022/06/19 00:12:45;;;;;;;;;;;27.50;69.30;27.30;99084.00;;;;342912;28;82703;-85
2022/06/19 00:12:56;;;;;;;;;;;27.50;69.40;27.30;99098.00;;;;342732;28;88812;-86
2022/06/19 00:13:08;;;;;;;;;;;27.50;69.40;27.30;99080.00;;;;343264;28;83174;-86
2022/06/19 00:13:20;;;;;;;;;;;27.50;69.50;27.30;99083.00;;;;344252;28;89156;-86
2022/06/19 00:13:32;;;;;;;;;;;27.40;69.30;27.30;99084.00;;;;341844;28;83504;-86
2022/06/19 00:13:44;;;;;;;;;;;27.40;69.30;27.30;99087.00;;;;341451;28;89106;-86
2022/06/19 00:13:56;;;;;;;;;;;27.40;69.30;27.30;99088.00;;;;341987;28;83454;-86
2022/06/19 00:14:08;;;;;;;;;;;27.40;69.40;27.30;99083.00;;;;340200;28;90767;-86
2022/06/19 00:14:20;;;;;;;;;;;27.40;69.40;27.30;99087.00;;;;340610;28;83364;-86
2022/06/19 00:14:33;;;;;;;;;;;27.50;69.50;27.30;99111.00;;;;340274;28;88799;-86
2022/06/19 00:14:45;;;;;;;;;;;27.40;69.50;27.30;99091.00;;;;340573;28;83206;-86
2022/06/19 00:14:57;;;;;;;;;;;27.40;69.50;27.30;99090.00;;;;341499;28;88678;-86
2022/06/19 00:15:09;;;;;;;;;;;27.40;69.40;27.40;99085.00;;;;341960;28;83355;-86
2022/06/19 00:15:21;;;;;;;;;;;27.40;69.40;27.40;99082.00;;;;342878;28;91125;-87
2022/06/19 00:15:33;;;;;;;;;;;27.40;69.40;27.30;99084.00;;;;340682;28;83199;-86
2022/06/19 00:15:45;;;;;;;;;;;27.40;69.50;27.30;99086.00;;;;342178;28;88762;-86
2022/06/19 00:15:57;;;;;;;;;;;27.40;69.50;27.30;99087.00;;;;341764;28;83508;-86
2022/06/19 00:16:08;;;;;;;;;;;27.40;69.40;27.40;99089.00;;;;339612;28;91057;-86
2022/06/19 00:16:20;;;;;;;;;;;27.40;70.10;27.40;99085.00;;;;340682;28;82267;-86
2022/06/19 00:16:32;;;;;;;;;;;27.40;69.30;27.30;99083.00;;;;338787;28;90655;-86
2022/06/19 00:16:44;;;;;;;;;;;27.40;69.50;27.30;99083.00;;;;342513;28;83756;-86
2022/06/19 00:16:56;;;;;;;;;;;27.40;69.50;27.40;99086.00;;;;341403;28;88844;-86
2022/06/19 00:17:09;;;;;;;;;;;27.40;69.40;27.30;99080.00;;;;342078;28;82520;-86
2022/06/19 00:17:21;;;;;;;;;;;27.40;69.60;27.30;99089.00;;;;341542;28;89817;-86
2022/06/19 00:17:33;;;;;;;;;;;27.40;69.60;27.30;99090.00;;;;343366;28;83327;-86
2022/06/19 00:17:45;;;;;;;;;;;27.40;69.60;27.30;99086.00;;;;344286;28;89202;-86
2022/06/19 00:17:56;;;;;;;;;;;27.40;69.60;27.30;99075.00;;;;343350;28;82302;-86
2022/06/19 00:18:08;;;;;;;;;;;27.40;69.50;27.40;99078.00;;;;341433;28;91952;-86
2022/06/19 00:18:22;;;;;;;;;;;27.40;69.70;27.30;99074.00;;;;341922;28;83458;-86
2022/06/19 00:18:34;;;;;;;;;;;27.40;69.60;27.30;99081.00;;;;342530;28;88871;-85
2022/06/19 00:18:46;;;;;;;;;;;27.40;69.60;27.30;99084.00;;;;343605;28;83394;-86
2022/06/19 00:18:58;;;;;;;;;;;27.40;69.70;27.20;99075.00;;;;342708;28;88569;-86
2022/06/19 00:19:10;;;;;;;;;;;27.40;69.80;27.20;99071.00;;;;343244;28;82504;-86
2022/06/19 00:19:22;;;;;;;;;;;27.40;69.70;27.20;99077.00;;;;342861;28;89529;-86
2022/06/19 00:19:33;;;;;;;;;;;27.40;69.70;27.20;99083.00;;;;340566;28;83275;-86
2022/06/19 00:19:45;;;;;;;;;;;27.30;69.60;27.20;99083.00;;;;341901;28;92156;-86
2022/06/19 00:19:57;;;;;;;;;;;27.40;69.80;27.20;99084.00;;;;343313;28;83199;-87
2022/06/19 00:20:09;;;;;;;;;;;27.40;69.80;27.20;99085.00;;;;342852;28;90554;-86
2022/06/19 00:20:21;;;;;;;;;;;27.40;69.80;27.20;99088.00;;;;343292;28;83298;-86
2022/06/19 00:20:32;;;;;;;;;;;27.40;69.70;27.30;99081.00;;;;341523;28;92302;-86
2022/06/19 00:20:44;;;;;;;;;;;27.40;69.70;27.30;99087.00;;;;343215;28;83349;-86
2022/06/19 00:20:56;;;;;;;;;;;27.40;69.90;27.30;99080.00;;;;342641;28;89113;-87
2022/06/19 00:21:08;;;;;;;;;;;27.40;69.90;27.30;99075.00;;;;343207;28;83534;-86
2022/06/19 00:21:20;;;;;;;;;;;27.40;69.80;27.30;99082.00;;;;342930;28;88826;-86
2022/06/19 00:21:32;;;;;;;;;;;27.40;69.90;27.20;99085.00;;;;340544;28;83372;-86
2022/06/19 00:21:44;;;;;;;;;;;27.40;69.80;27.20;99080.00;;;;340926;28;91173;-86
2022/06/19 00:21:55;;;;;;;;;;;27.40;69.90;27.20;99080.00;;;;343123;28;83624;-86
2022/06/19 00:22:07;;;;;;;;;;;27.30;69.90;27.20;99073.00;;;;341455;28;89890;-86
2022/06/19 00:22:19;;;;;;;;;;;27.30;69.80;27.20;99084.00;;;;341916;28;82634;-86
2022/06/19 00:22:31;;;;;;;;;;;27.30;69.80;27.20;99080.00;;;;340132;28;91148;-86
2022/06/19 00:22:42;;;;;;;;;;;27.30;69.80;27.20;99086.00;;;;341507;28;83336;-85
2022/06/19 00:22:54;;;;;;;;;;;27.30;69.90;27.10;99079.00;;;;340136;28;90645;-87
2022/06/19 00:23:06;;;;;;;;;;;27.30;70.50;27.20;99076.00;;;;341545;28;84111;-86
2022/06/19 00:23:18;;;;;;;;;;;27.30;69.90;27.10;99080.00;;;;341513;28;91098;-86
2022/06/19 00:23:30;;;;;;;;;;;27.30;70.00;27.20;99082.00;;;;340560;28;83174;-87
2022/06/19 00:23:43;;;;;;;;;;;27.30;70.00;27.20;99083.00;;;;341546;28;89458;-86
2022/06/19 00:23:54;;;;;;;;;;;27.30;70.10;27.10;99067.00;;;;340531;28;83364;-86
2022/06/19 00:24:06;;;;;;;;;;;27.30;70.10;27.10;99074.00;;;;340041;28;91746;-86
2022/06/19 00:24:18;;;;;;;;;;;27.30;70.10;27.10;99075.00;;;;339166;28;82521;-86
2022/06/19 00:24:30;;;;;;;;;;;27.30;70.10;27.20;99090.00;;;;341241;28;92674;-86
2022/06/19 00:24:41;;;;;;;;;;;27.30;70.10;27.20;99076.00;;;;342042;28;83652;-86
2022/06/19 00:24:53;;;;;;;;;;;27.30;70.20;27.20;99082.00;;;;339968;28;92092;-86
2022/06/19 00:25:06;;;;;;;;;;;27.30;70.10;27.20;99083.00;;;;343266;28;83323;-86
2022/06/19 00:25:18;;;;;;;;;;;27.30;70.20;27.20;99082.00;;;;340246;28;89075;-87
2022/06/19 00:25:29;;;;;;;;;;;27.30;70.20;27.20;99075.00;;;;340674;28;82414;-86
2022/06/19 00:25:41;;;;;;;;;;;27.30;70.20;27.20;99078.00;;;;340069;28;88091;-87
2022/06/19 00:25:53;;;;;;;;;;;27.30;70.20;27.20;99084.00;;;;340659;28;82433;-86
2022/06/19 00:26:05;;;;;;;;;;;27.30;70.20;27.20;99093.00;;;;340157;28;90068;-87
2022/06/19 00:26:16;;;;;;;;;;;27.30;70.10;27.20;99096.00;;;;341808;28;83456;-86
2022/06/19 00:26:28;;;;;;;;;;;27.30;70.20;27.10;99080.00;;;;342791;28;92341;-86
2022/06/19 00:26:40;;;;;;;;;;;27.30;70.20;27.10;99081.00;;;;341705;28;83247;-86
2022/06/19 00:26:51;;;;;;;;;;;27.30;70.20;27.10;99074.00;;;;341296;28;88726;-86
2022/06/19 00:27:04;;;;;;;;;;;27.30;70.20;27.20;99088.00;;;;340535;28;83451;-86
2022/06/19 00:27:15;;;;;;;;;;;27.20;70.00;27.20;99082.00;;;;342892;28;91572;-86
2022/06/19 00:27:28;;;;;;;;;;;27.30;70.10;27.20;99082.00;;;;343251;28;83421;-86
2022/06/19 00:27:40;;;;;;;;;;;27.30;70.10;27.10;99089.00;;;;342175;28;92577;-87
2022/06/19 00:27:52;;;;;;;;;;;27.30;70.20;27.10;99071.00;;;;341882;28;83484;-86
2022/06/19 00:28:04;;;;;;;;;;;27.20;70.20;27.10;99079.00;;;;342841;28;90151;-86
2022/06/19 00:28:16;;;;;;;;;;;27.20;70.20;27.10;99080.00;;;;343227;28;83375;-86
2022/06/19 00:28:27;;;;;;;;;;;27.20;70.30;27.10;99079.00;;;;342789;28;92553;-86
2022/06/19 00:28:40;;;;;;;;;;;27.20;70.30;27.10;99074.00;;;;340619;28;83352;-86
2022/06/19 00:28:52;;;;;;;;;;;27.20;70.20;27.20;99085.00;;;;341420;28;92334;-86
2022/06/19 00:29:04;;;;;;;;;;;27.30;70.20;27.10;99086.00;;;;343309;28;82463;-86
2022/06/19 00:29:16;;;;;;;;;;;27.20;70.30;27.10;99080.00;;;;342806;28;89105;-86
2022/06/19 00:29:28;;;;;;;;;;;27.20;70.20;27.10;99075.00;;;;341758;28;83297;-86
2022/06/19 00:29:39;;;;;;;;;;;27.20;70.40;27.10;99068.00;;;;343878;28;89113;-86
2022/06/19 00:29:52;;;;;;;;;;;27.20;70.30;27.10;99089.00;;;;344685;28;83264;-86
2022/06/19 00:30:06;;;;;;;;;;;27.20;70.30;27.00;99067.00;;;;340057;28;93429;-86
2022/06/19 00:30:17;;;;;;;;;;;27.20;70.40;27.00;99072.00;;;;341866;28;83409;-86
2022/06/19 00:30:29;;;;;;;;;;;27.20;70.40;27.10;99077.00;;;;341479;28;91610;-85
2022/06/19 00:30:41;;;;;;;;;;;27.20;70.40;27.10;99092.00;;;;343068;28;83491;-86
2022/06/19 00:30:53;;;;;;;;;;;27.20;70.30;27.10;99085.00;;;;341239;28;90287;-87
2022/06/19 00:31:04;;;;;;;;;;;27.20;70.40;27.10;99087.00;;;;343275;28;82487;-85
2022/06/19 00:31:16;;;;;;;;;;;27.20;70.50;27.00;99084.00;;;;342705;28;92440;-86
2022/06/19 00:31:28;;;;;;;;;;;27.20;70.60;27.10;99086.00;;;;343334;28;83316;-85
2022/06/19 00:31:40;;;;;;;;;;;27.20;70.50;27.10;99083.00;;;;341475;28;88962;-86
2022/06/19 00:31:54;;;;;;;;;;;27.20;70.50;27.10;99087.00;;;;342043;28;82445;-86
2022/06/19 00:32:07;;;;;;;;;;;27.20;70.50;27.10;99080.00;;;;341504;28;90147;-86
2022/06/19 00:32:20;;;;;;;;;;;27.20;70.50;27.10;99092.00;;;;341660;28;83618;-86
2022/06/19 00:32:32;;;;;;;;;;;27.20;70.50;27.10;99080.00;;;;342786;28;92558;-86
2022/06/19 00:32:43;;;;;;;;;;;27.20;70.50;27.00;99069.00;;;;343227;28;83227;-86
2022/06/19 00:32:55;;;;;;;;;;;27.20;70.60;27.10;99081.00;;;;344105;28;90498;-86
2022/06/19 00:33:07;;;;;;;;;;;27.20;70.50;27.00;99073.00;;;;343209;28;83321;-86
2022/06/19 00:33:19;;;;;;;;;;;27.20;70.60;27.10;99063.00;;;;340179;28;88663;-86
2022/06/19 00:33:31;;;;;;;;;;;27.20;70.60;27.10;99066.00;;;;341901;28;83323;-86
2022/06/19 00:33:42;;;;;;;;;;;27.20;70.60;27.10;99082.00;;;;342342;28;92149;-86
2022/06/19 00:33:54;;;;;;;;;;;27.20;70.60;27.10;99075.00;;;;341304;28;83719;-86
2022/06/19 00:34:06;;;;;;;;;;;27.20;70.60;27.10;99081.00;;;;344188;28;90385;-86
2022/06/19 00:34:18;;;;;;;;;;;27.20;70.70;27.00;99076.00;;;;343322;28;82500;-86
2022/06/19 00:34:29;;;;;;;;;;;27.20;70.70;27.00;99078.00;;;;342904;28;88669;-86
2022/06/19 00:34:41;;;;;;;;;;;27.20;70.70;27.00;99076.00;;;;341580;28;82460;-86
2022/06/19 00:34:53;;;;;;;;;;;27.10;70.70;27.00;99075.00;;;;342796;28;91918;-86
2022/06/19 00:35:05;;;;;;;;;;;27.10;70.60;27.10;99079.00;;;;343245;28;83226;-86
2022/06/19 00:35:16;;;;;;;;;;;27.20;70.70;27.00;99088.00;;;;341536;28;88938;-86
2022/06/19 00:35:29;;;;;;;;;;;27.10;70.70;27.00;99092.00;;;;344507;28;82309;-86
2022/06/19 00:35:41;;;;;;;;;;;27.10;70.80;27.00;99084.00;;;;341380;28;92658;-87
2022/06/19 00:35:53;;;;;;;;;;;27.10;70.70;27.00;99085.00;;;;341566;28;83436;-86
2022/06/19 00:36:05;;;;;;;;;;;27.10;70.70;27.00;99081.00;;;;341368;28;94339;-86
2022/06/19 00:36:20;;;;;;;;;;;27.10;70.80;27.00;99076.00;;;;343347;28;83391;-86
2022/06/19 00:36:33;;;;;;;;;;;27.10;70.80;27.00;99079.00;;;;341560;28;88673;-86
2022/06/19 00:36:49;;;;;;;;;;;27.10;70.70;27.00;99076.00;;;;341679;28;82660;-86
2022/06/19 00:37:01;;;;;;;;;;;27.10;70.90;27.10;99086.00;;;;342915;28;89329;-86
2022/06/19 00:37:13;;;;;;;;;;;27.10;70.80;27.10;99082.00;;;;342384;28;82529;-86
2022/06/19 00:37:25;;;;;;;;;;;27.10;70.90;27.10;99084.00;;;;342896;28;89293;-86
2022/06/19 00:37:37;;;;;;;;;;;27.10;70.80;27.10;99085.00;;;;340574;28;82461;-86
2022/06/19 00:37:49;;;;;;;;;;;27.10;70.80;27.10;99089.00;;;;341279;28;92207;-86
2022/06/19 00:38:00;;;;;;;;;;;27.10;70.70;27.10;99078.00;;;;341975;28;83273;-86
2022/06/19 00:38:15;;;;;;;;;;;27.10;70.80;27.10;99087.00;;;;344123;28;89233;-86
2022/06/19 00:38:27;;;;;;;;;;;27.10;70.80;27.00;99078.00;;;;340522;28;83493;-86
2022/06/19 00:38:39;;;;;;;;;;;27.10;70.90;27.00;99084.00;;;;341475;28;92004;-86
2022/06/19 00:38:50;;;;;;;;;;;27.10;70.90;27.00;99081.00;;;;341669;28;82347;-86
2022/06/19 00:39:02;;;;;;;;;;;27.10;70.90;27.10;99093.00;;;;341438;28;92265;-86
2022/06/19 00:39:14;;;;;;;;;;;27.10;70.80;27.10;99085.00;;;;343292;28;83318;-86
2022/06/19 00:39:26;;;;;;;;;;;27.10;71.00;27.10;99083.00;;;;341505;28;89303;-86
2022/06/19 00:39:42;;;;;;;;;;;27.10;70.90;27.10;99090.00;;;;338829;28;83515;-85
2022/06/19 00:39:55;;;;;;;;;;;27.10;70.90;27.00;99075.00;;;;339867;28;92271;-86
2022/06/19 00:40:11;;;;;;;;;;;27.10;70.90;27.00;99093.00;;;;341817;28;83330;-86
2022/06/19 00:40:25;;;;;;;;;;;27.10;70.90;27.00;99074.00;;;;340065;28;90284;-86
2022/06/19 00:40:36;;;;;;;;;;;27.10;71.00;27.00;99081.00;;;;340539;28;83271;-86
2022/06/19 00:40:48;;;;;;;;;;;27.10;71.00;27.00;99080.00;;;;342603;28;90644;-86
2022/06/19 00:41:00;;;;;;;;;;;27.10;71.10;27.00;99082.00;;;;343185;28;82422;-86
2022/06/19 00:41:12;;;;;;;;;;;27.10;71.10;27.00;99093.00;;;;341529;28;88791;-86
2022/06/19 00:41:24;;;;;;;;;;;27.10;71.10;26.90;99093.00;;;;343327;28;83349;-86
2022/06/19 00:41:39;;;;;;;;;;;27.10;71.10;26.90;99097.00;;;;340033;28;91110;-86
2022/06/19 00:41:51;;;;;;;;;;;27.10;71.20;26.90;99075.00;;;;341606;28;83402;-86
2022/06/19 00:42:03;;;;;;;;;;;27.10;71.10;26.90;99074.00;;;;342873;28;89249;-86
2022/06/19 00:42:15;;;;;;;;;;;27.10;71.00;26.90;99070.00;;;;343178;28;84410;-86
2022/06/19 00:42:28;;;;;;;;;;;27.10;71.10;26.90;99073.00;;;;344131;28;91858;-86
2022/06/19 00:42:39;;;;;;;;;;;27.10;71.10;27.00;99075.00;;;;341814;28;83367;-86
2022/06/19 00:42:51;;;;;;;;;;;27.10;71.10;27.00;99077.00;;;;342693;28;89082;-86
2022/06/19 00:43:03;;;;;;;;;;;27.10;71.00;27.00;99082.00;;;;340533;28;83379;-86
2022/06/19 00:43:15;;;;;;;;;;;27.10;71.20;26.90;99085.00;;;;341281;28;91435;-86
2022/06/19 00:43:27;;;;;;;;;;;27.10;71.30;27.00;99082.00;;;;343345;28;83401;-86
2022/06/19 00:43:58;;;;;;;;;;;27.10;71.10;27.00;99084.00;;;;345587;28;88819;-86
2022/06/19 00:44:12;;;;;;;;;;;27.10;71.20;27.00;99078.00;;;;341892;28;83312;-86
2022/06/19 00:44:24;;;;;;;;;;;27.10;71.20;27.00;99074.00;;;;341541;28;88882;-86
2022/06/19 00:44:35;;;;;;;;;;;27.10;71.00;27.10;99085.00;;;;343318;28;82438;-86
2022/06/19 00:44:47;;;;;;;;;;;27.10;71.00;26.90;99083.00;;;;341402;28;91590;-86
2022/06/19 00:45:00;;;;;;;;;;;27.10;71.30;26.90;99087.00;;;;341818;28;82606;-86
2022/06/19 00:45:30;;;;;;;;;;;27.10;71.30;27.00;99077.00;;;;344179;28;92012;-86
2022/06/19 00:45:49;;;;;;;;;;;27.10;71.20;27.00;99078.00;;;;342122;28;82564;-86
2022/06/19 00:46:04;;;;;;;;;;;27.10;71.30;27.00;99075.00;;;;340260;28;89134;-86
2022/06/19 00:46:39;;;;;;;;;;;27.10;71.30;26.90;99082.00;;;;345748;28;83494;-86
2022/06/19 00:46:54;;;;;;;;;;;27.10;71.30;26.90;99077.00;;;;342837;28;89280;-86
2022/06/19 00:47:13;;;;;;;;;;;27.00;71.30;26.90;99070.00;;;;340585;28;83496;-86
2022/06/19 00:47:28;;;;;;;;;;;27.00;71.40;27.00;99074.00;;;;340089;28;90389;-86
2022/06/19 00:47:40;;;;;;;;;;;27.10;71.30;27.00;99075.00;;;;341861;28;83215;-86
2022/06/19 00:47:52;;;;;;;;;;;27.10;71.40;27.00;99078.00;;;;338743;28;89829;-86
2022/06/19 00:48:14;;;;;;;;;;;27.10;71.40;27.00;99081.00;;;;340570;28;82447;-86
2022/06/19 00:48:36;;;;;;;;;;;27.10;71.40;27.00;99074.00;;;;341444;28;90897;-86
2022/06/19 00:48:48;;;;;;;;;;;27.00;71.40;26.90;99066.00;;;;342854;28;82561;-86
2022/06/19 00:49:00;;;;;;;;;;;27.00;71.50;26.90;99062.00;;;;340000;28;89293;-86
2022/06/19 00:49:16;;;;;;;;;;;27.00;71.50;27.00;99077.00;;;;343168;28;82394;-86
2022/06/19 00:49:32;;;;;;;;;;;27.00;71.40;27.00;99065.00;;;;342900;28;89797;-86
2022/06/19 00:50:15;;;;;;;;;;;27.00;71.50;26.90;99072.00;;;;338752;28;83364;-87
2022/06/19 00:50:32;;;;;;;;;;;27.00;71.40;26.90;99069.00;;;;334809;29;89284;-86
2022/06/19 00:50:45;;;;;;;;;;;27.00;71.60;26.80;99071.00;;;;337820;28;82536;-86
2022/06/19 00:51:04;;;;;;;;;;;27.00;71.70;26.90;99081.00;;;;339954;28;93210;-86
2022/06/19 00:51:16;;;;;;;;;;;27.00;71.60;26.80;99070.00;;;;341889;28;83331;-85
2022/06/19 00:51:28;;;;;;;;;;;27.00;71.70;26.90;99077.00;;;;341549;28;88015;-86
2022/06/19 00:51:40;;;;;;;;;;;27.00;71.80;26.90;99079.00;;;;342801;28;83299;-86
2022/06/19 00:52:01;;;;;;;;;;;27.00;71.70;26.90;99071.00;;;;341319;28;87610;-86
2022/06/19 00:52:20;;;;;;;;;;;27.00;71.60;26.80;99068.00;;;;343898;28;83356;-86
2022/06/19 00:52:34;;;;;;;;;;;27.00;71.80;26.80;99076.00;;;;341546;28;88658;-86
2022/06/19 00:52:46;;;;;;;;;;;27.00;71.80;26.80;99080.00;;;;342797;28;83360;-86
2022/06/19 00:52:58;;;;;;;;;;;27.00;71.90;26.80;99079.00;;;;341299;28;90055;-86
2022/06/19 00:53:46;;;;;;;;;;;27.00;71.90;26.80;99086.00;;;;343045;28;82302;-87
2022/06/19 00:53:57;;;;;;;;;;;27.00;72.00;26.90;99081.00;;;;340167;28;90657;-86
2022/06/19 00:54:10;;;;;;;;;;;26.90;72.00;26.80;99085.00;;;;340622;28;82447;-86
2022/06/19 00:54:22;;;;;;;;;;;26.90;71.90;26.80;99084.00;;;;341473;28;88711;-86
2022/06/19 00:54:43;;;;;;;;;;;26.90;71.90;26.90;99075.00;;;;341853;28;83243;-86
2022/06/19 00:55:10;;;;;;;;;;;26.90;72.00;26.80;99086.00;;;;339118;28;89230;-86
2022/06/19 00:55:30;;;;;;;;;;;26.90;72.00;26.80;99076.00;;;;341741;28;83341;-86
2022/06/19 00:55:43;;;;;;;;;;;26.90;72.10;26.90;99081.00;;;;341281;28;90768;-86
2022/06/19 00:55:55;;;;;;;;;;;26.90;72.00;26.90;99086.00;;;;340559;28;83497;-86
2022/06/19 00:56:07;;;;;;;;;;;26.90;72.10;26.80;99078.00;;;;342872;28;88728;-86
2022/06/19 00:56:19;;;;;;;;;;;26.90;72.10;26.90;99081.00;;;;341892;28;83463;-86
2022/06/19 00:56:31;;;;;;;;;;;26.90;71.90;26.90;99075.00;;;;342812;28;90572;-86
2022/06/19 00:56:42;;;;;;;;;;;26.90;72.10;26.90;99068.00;;;;343182;28;84172;-86
2022/06/19 00:56:54;;;;;;;;;;;26.90;72.00;26.80;99073.00;;;;341528;28;88018;-86
2022/06/19 00:57:06;;;;;;;;;;;26.90;72.00;26.80;99078.00;;;;340584;28;82565;-86
2022/06/19 00:57:18;;;;;;;;;;;26.90;72.00;26.90;99072.00;;;;341615;28;87733;-86
2022/06/19 00:57:31;;;;;;;;;;;26.90;72.50;26.90;99073.00;;;;343229;28;83462;-86
2022/06/19 00:57:47;;;;;;;;;;;26.90;72.00;26.90;99080.00;;;;340654;28;89767;-86
2022/06/19 00:58:06;;;;;;;;;;;26.90;72.10;26.80;99068.00;;;;341857;28;83362;-86
2022/06/19 00:58:27;;;;;;;;;;;26.90;72.30;26.80;99075.00;;;;338834;28;87467;-86
2022/06/19 00:58:39;;;;;;;;;;;26.90;72.30;26.90;99086.00;;;;340627;28;82404;-86
2022/06/19 00:58:51;;;;;;;;;;;26.90;72.10;26.90;99084.00;;;;342750;28;90491;-86
2022/06/19 00:59:03;;;;;;;;;;;26.90;72.20;26.90;99086.00;;;;343019;28;83396;-86
2022/06/19 00:59:14;;;;;;;;;;;26.90;72.10;26.90;99076.00;;;;344256;28;89063;-86
2022/06/19 00:59:26;;;;;;;;;;;26.90;72.20;26.90;99069.00;;;;343247;28;83439;-86
2022/06/19 00:59:38;;;;;;;;;;;26.90;72.20;26.90;99076.00;;;;344187;28;89221;-86
2022/06/19 01:00:04;;;;;;;;;;;26.90;72.10;26.90;99073.00;;;;343300;28;83324;-86
2022/06/19 01:00:23;;;;;;;;;;;26.90;72.10;26.80;99076.00;;;;340074;28;91514;-86
2022/06/19 01:00:36;;;;;;;;;;;26.90;72.20;26.80;99073.00;;;;341945;28;82542;-86
2022/06/19 01:00:51;;;;;;;;;;;26.90;72.10;26.80;99079.00;;;;341094;28;89241;-86
2022/06/19 01:01:11;;;;;;;;;;;26.90;72.20;26.80;99075.00;;;;343317;28;83298;-86
2022/06/19 01:01:24;;;;;;;;;;;26.90;72.20;26.80;99073.00;;;;340015;28;93910;-86
2022/06/19 01:01:35;;;;;;;;;;;26.90;72.20;26.90;99071.00;;;;339216;28;83360;-86
2022/06/19 01:01:47;;;;;;;;;;;26.90;72.10;26.90;99071.00;;;;341328;28;92011;-86
2022/06/19 01:01:59;;;;;;;;;;;26.90;72.20;26.90;99070.00;;;;340588;28;83355;-86
2022/06/19 01:02:11;;;;;;;;;;;26.90;72.20;26.90;99073.00;;;;340030;28;92917;-86
2022/06/19 01:02:23;;;;;;;;;;;26.90;72.10;26.90;99068.00;;;;341584;28;83470;-86
2022/06/19 01:02:37;;;;;;;;;;;26.90;72.20;26.90;99073.00;;;;341346;28;92720;-86
2022/06/19 01:02:49;;;;;;;;;;;26.90;72.10;26.90;99075.00;;;;341850;28;83244;-86
2022/06/19 01:03:08;;;;;;;;;;;26.90;72.10;26.80;99077.00;;;;341415;28;92260;-86
2022/06/19 01:04:03;;;;;;;;;;;26.90;72.20;26.70;99076.00;;;;340635;28;83372;-85
2022/06/19 01:04:24;;;;;;;;;;;26.90;72.30;26.80;99089.00;;;;341008;28;88928;-86
2022/06/19 01:04:42;;;;;;;;;;;26.90;72.40;26.80;99077.00;;;;340415;28;82520;-86
2022/06/19 01:04:54;;;;;;;;;;;26.90;72.40;26.80;99080.00;;;;341296;28;91752;-86
2022/06/19 01:05:06;;;;;;;;;;;26.90;72.30;26.80;99077.00;;;;344375;28;83412;-86
2022/06/19 01:05:18;;;;;;;;;;;26.90;72.30;26.80;99075.00;;;;341531;28;89167;-86
2022/06/19 01:05:30;;;;;;;;;;;26.90;72.50;26.70;99070.00;;;;343283;28;83390;-86
2022/06/19 01:05:42;;;;;;;;;;;26.90;72.50;26.70;99076.00;;;;341367;28;92444;-86
2022/06/19 01:05:54;;;;;;;;;;;26.80;72.40;26.60;99075.00;;;;343327;28;82212;-86